KLOT/LOT METAR and TAF weather

Enter ICAO airport designator
Station Type Date Time Source
KLOT METAR 2023/01/30 11:35 UTC NOAA

KLOT 301135Z AUTO 33009KT 10SM FEW036 OVC055 M11/M15 A3036 RMK AO2


Station Type Date Time Source
KLOT Decoded METAR 2023/01/30 11:35 UTC NOAA

Chicago/Romeoville, Lewis University Airport, IL, United States (KLOT) 41-36-30N 088-05-39W
Jan 30, 2023 - 06:35 AM EST / 2023.01.30 1135 UTC
Wind: from the NNW (330 degrees) at 10 MPH (9 KT):0
Visibility: 10 mile(s):0
Sky conditions: overcast
Temperature: 12 F (-11 C)
Windchill: 0 F (-18 C):1
Dew Point: 5 F (-15 C)
Relative Humidity: 72%
Pressure (altimeter): 30.36 in. Hg (1028 hPa)
ob: KLOT 301135Z AUTO 33009KT 10SM FEW036 OVC055 M11/M15 A3036 RMK AO2
cycle: 11

Station Type Date Time Source
KLOT TAF UTC NOAA

Error!

Example: see airport list